Delta, Wisconsin
Current Conditions -  °F | °C
As of 9:53 AM on Thursday 23 Oct 2014 (Local Time) from KASX Reporting Station
Overcast Overcast  
Wind Chill: 45°   Ceiling: 1200
Heat Index: 48°   Visibility: 9mi
Dew Point: 47°   Wind: 6mph
Humidity: 96%   Direction: 200°SSW
Pressure: 30.01"   Gusts: NA
Location:  46.4275°N, 91.0942°W
Report Text: KASX 231453Z AUTO 20005KT 9SM OVC012 09/08 A3001 RMK AO2 SLP167 60011 T00890083 53002
Loading
Personal Weather Stations






























Interactive Weather Map
Tropical Storm Tracking
New forecast layout! Learn more

10-Day Weather Forecast

Advertisements
Track Severe Weather on mobile